sensor_id;sensor_type;location;lat;lon;timestamp;temperature;humidity
29453;DHT22;16424;50.956;5.320;2022-11-04T00:01:54;11.30;99.90
29453;DHT22;16424;50.956;5.320;2022-11-04T00:04:22;11.20;99.90
29453;DHT22;16424;50.956;5.320;2022-11-04T00:06:49;11.20;99.90
29453;DHT22;16424;50.956;5.320;2022-11-04T00:09:20;11.30;99.90
29453;DHT22;16424;50.956;5.320;2022-11-04T00:11:47;11.30;99.90
29453;DHT22;16424;50.956;5.320;2022-11-04T00:14:32;11.30;99.90
29453;DHT22;16424;50.956;5.320;2022-11-04T00:16:58;11.40;99.90
29453;DHT22;16424;50.956;5.320;2022-11-04T00:19:42;11.40;99.90
29453;DHT22;16424;50.956;5.320;2022-11-04T00:22:27;11.30;99.90
29453;DHT22;16424;50.956;5.320;2022-11-04T00:25:11;11.40;99.90
29453;DHT22;16424;50.956;5.320;2022-11-04T00:28:12;11.50;99.90
29453;DHT22;16424;50.956;5.320;2022-11-04T00:30:58;11.40;99.90
29453;DHT22;16424;50.956;5.320;2022-11-04T00:33:44;11.50;99.90
29453;DHT22;16424;50.956;5.320;2022-11-04T00:36:10;11.30;99.90
29453;DHT22;16424;50.956;5.320;2022-11-04T00:38:36;11.30;99.90
29453;DHT22;16424;50.956;5.320;2022-11-04T00:41:01;11.40;99.90
29453;DHT22;16424;50.956;5.320;2022-11-04T00:43:27;11.20;99.90
29453;DHT22;16424;50.956;5.320;2022-11-04T00:45:52;11.00;99.90
29453;DHT22;16424;50.956;5.320;2022-11-04T00:48:18;10.90;99.90
29453;DHT22;16424;50.956;5.320;2022-11-04T00:50:43;11.00;99.90
29453;DHT22;16424;50.956;5.320;2022-11-04T00:53:09;11.00;99.90
29453;DHT22;16424;50.956;5.320;2022-11-04T00:55:35;11.00;99.90
29453;DHT22;16424;50.956;5.320;2022-11-04T00:58:01;11.00;99.90
29453;DHT22;16424;50.956;5.320;2022-11-04T01:00:26;11.00;99.90
29453;DHT22;16424;50.956;5.320;2022-11-04T01:02:52;11.00;99.90
29453;DHT22;16424;50.956;5.320;2022-11-04T01:05:18;11.00;99.90
29453;DHT22;16424;50.956;5.320;2022-11-04T01:07:44;11.00;99.90
29453;DHT22;16424;50.956;5.320;2022-11-04T01:10:09;10.90;99.90
29453;DHT22;16424;50.956;5.320;2022-11-04T01:12:35;10.90;99.90
29453;DHT22;16424;50.956;5.320;2022-11-04T01:15:00;11.00;99.90
29453;DHT22;16424;50.956;5.320;2022-11-04T01:17:26;11.10;99.90
29453;DHT22;16424;50.956;5.320;2022-11-04T01:19:55;11.10;99.90
29453;DHT22;16424;50.956;5.320;2022-11-04T01:22:20;11.00;99.90
29453;DHT22;16424;50.956;5.320;2022-11-04T01:24:46;11.10;99.90
29453;DHT22;16424;50.956;5.320;2022-11-04T01:27:11;11.00;99.90
29453;DHT22;16424;50.956;5.320;2022-11-04T01:29:37;11.00;99.90
29453;DHT22;16424;50.956;5.320;2022-11-04T01:32:03;11.00;99.90
29453;DHT22;16424;50.956;5.320;2022-11-04T01:34:28;11.00;99.90
29453;DHT22;16424;50.956;5.320;2022-11-04T01:36:54;10.90;99.90
29453;DHT22;16424;50.956;5.320;2022-11-04T01:39:20;10.90;99.90
29453;DHT22;16424;50.956;5.320;2022-11-04T01:41:45;11.00;99.90
29453;DHT22;16424;50.956;5.320;2022-11-04T01:44:47;10.90;99.90
29453;DHT22;16424;50.956;5.320;2022-11-04T01:52:42;10.90;99.90
29453;DHT22;16424;50.956;5.320;2022-11-04T01:55:20;10.90;99.90
29453;DHT22;16424;50.956;5.320;2022-11-04T01:57:48;10.90;99.90
29453;DHT22;16424;50.956;5.320;2022-11-04T02:00:15;10.80;99.90
29453;DHT22;16424;50.956;5.320;2022-11-04T02:03:00;10.80;99.90
29453;DHT22;16424;50.956;5.320;2022-11-04T02:05:29;10.80;99.90
29453;DHT22;16424;50.956;5.320;2022-11-04T02:07:56;10.70;99.90
29453;DHT22;16424;50.956;5.320;2022-11-04T02:10:25;10.80;99.90
29453;DHT22;16424;50.956;5.320;2022-11-04T02:12:52;10.80;99.90
29453;DHT22;16424;50.956;5.320;2022-11-04T02:29:09;10.70;99.90
29453;DHT22;16424;50.956;5.320;2022-11-04T02:32:01;10.80;99.90
29453;DHT22;16424;50.956;5.320;2022-11-04T02:37:13;10.60;99.90
29453;DHT22;16424;50.956;5.320;2022-11-04T02:39:54;10.50;99.90
29453;DHT22;16424;50.956;5.320;2022-11-04T02:45:21;10.50;99.90
29453;DHT22;16424;50.956;5.320;2022-11-04T02:48:06;10.50;99.90
29453;DHT22;16424;50.956;5.320;2022-11-04T02:50:44;10.50;99.90
29453;DHT22;16424;50.956;5.320;2022-11-04T02:53:28;10.50;99.90
29453;DHT22;16424;50.956;5.320;2022-11-04T02:55:57;10.40;99.90
29453;DHT22;16424;50.956;5.320;2022-11-04T02:58:29;10.60;99.90
29453;DHT22;16424;50.956;5.320;2022-11-04T03:00:57;10.50;99.90
29453;DHT22;16424;50.956;5.320;2022-11-04T03:03:27;10.40;99.90
29453;DHT22;16424;50.956;5.320;2022-11-04T03:05:55;10.50;99.90
29453;DHT22;16424;50.956;5.320;2022-11-04T03:08:33;10.50;99.90
29453;DHT22;16424;50.956;5.320;2022-11-04T03:11:21;10.50;99.90
29453;DHT22;16424;50.956;5.320;2022-11-04T03:13:58;10.60;99.90
29453;DHT22;16424;50.956;5.320;2022-11-04T03:16:37;10.60;99.90
29453;DHT22;16424;50.956;5.320;2022-11-04T03:19:37;10.60;99.90
29453;DHT22;16424;50.956;5.320;2022-11-04T03:22:11;10.60;99.90
29453;DHT22;16424;50.956;5.320;2022-11-04T03:24:37;10.60;99.90
29453;DHT22;16424;50.956;5.320;2022-11-04T03:27:21;10.50;99.90
29453;DHT22;16424;50.956;5.320;2022-11-04T03:32:37;10.60;99.90
29453;DHT22;16424;50.956;5.320;2022-11-04T03:35:05;10.60;99.90
29453;DHT22;16424;50.956;5.320;2022-11-04T03:37:32;10.60;99.90
29453;DHT22;16424;50.956;5.320;2022-11-04T03:39:58;10.50;99.90
29453;DHT22;16424;50.956;5.320;2022-11-04T03:42:24;10.40;99.90
29453;DHT22;16424;50.956;5.320;2022-11-04T03:44:53;10.50;99.90
29453;DHT22;16424;50.956;5.320;2022-11-04T03:47:21;10.50;99.90
29453;DHT22;16424;50.956;5.320;2022-11-04T03:49:50;10.60;99.90
29453;DHT22;16424;50.956;5.320;2022-11-04T03:52:17;10.70;99.90
29453;DHT22;16424;50.956;5.320;2022-11-04T03:54:43;10.80;99.90
29453;DHT22;16424;50.956;5.320;2022-11-04T03:59:58;10.80;99.90
29453;DHT22;16424;50.956;5.320;2022-11-04T04:02:54;10.90;99.90
29453;DHT22;16424;50.956;5.320;2022-11-04T04:05:26;11.00;99.90
29453;DHT22;16424;50.956;5.320;2022-11-04T04:10:36;11.10;99.90
29453;DHT22;16424;50.956;5.320;2022-11-04T04:15:55;11.10;99.90
29453;DHT22;16424;50.956;5.320;2022-11-04T04:18:29;11.10;99.90
29453;DHT22;16424;50.956;5.320;2022-11-04T04:20:58;11.10;99.90
29453;DHT22;16424;50.956;5.320;2022-11-04T04:23:28;10.90;99.90
29453;DHT22;16424;50.956;5.320;2022-11-04T04:26:14;10.90;99.90
29453;DHT22;16424;50.956;5.320;2022-11-04T04:28:59;10.80;99.90
29453;DHT22;16424;50.956;5.320;2022-11-04T04:31:29;10.80;99.90
29453;DHT22;16424;50.956;5.320;2022-11-04T04:34:31;10.90;99.90
29453;DHT22;16424;50.956;5.320;2022-11-04T04:37:04;10.90;99.90
29453;DHT22;16424;50.956;5.320;2022-11-04T04:39:43;10.90;99.90
29453;DHT22;16424;50.956;5.320;2022-11-04T04:42:35;10.80;99.90
29453;DHT22;16424;50.956;5.320;2022-11-04T04:45:23;10.90;99.90
29453;DHT22;16424;50.956;5.320;2022-11-04T04:47:52;10.90;99.90
29453;DHT22;16424;50.956;5.320;2022-11-04T04:50:19;10.90;99.90
29453;DHT22;16424;50.956;5.320;2022-11-04T04:52:48;11.00;99.90
29453;DHT22;16424;50.956;5.320;2022-11-04T04:55:15;11.10;99.90
29453;DHT22;16424;50.956;5.320;2022-11-04T04:57:41;11.10;99.90
29453;DHT22;16424;50.956;5.320;2022-11-04T05:00:10;11.10;99.90
29453;DHT22;16424;50.956;5.320;2022-11-04T05:02:36;11.20;99.90
29453;DHT22;16424;50.956;5.320;2022-11-04T05:05:02;11.10;99.90
29453;DHT22;16424;50.956;5.320;2022-11-04T05:07:28;11.20;99.90
29453;DHT22;16424;50.956;5.320;2022-11-04T05:09:54;11.20;99.90
29453;DHT22;16424;50.956;5.320;2022-11-04T05:12:19;11.30;99.90
29453;DHT22;16424;50.956;5.320;2022-11-04T05:14:45;11.30;99.90
29453;DHT22;16424;50.956;5.320;2022-11-04T05:17:11;11.30;99.90
29453;DHT22;16424;50.956;5.320;2022-11-04T05:19:45;11.50;99.90
29453;DHT22;16424;50.956;5.320;2022-11-04T05:22:11;11.40;99.90
29453;DHT22;16424;50.956;5.320;2022-11-04T05:24:36;11.40;99.90
29453;DHT22;16424;50.956;5.320;2022-11-04T05:27:05;11.30;99.90
29453;DHT22;16424;50.956;5.320;2022-11-04T05:29:30;11.40;99.90
29453;DHT22;16424;50.956;5.320;2022-11-04T05:31:56;11.40;99.90
29453;DHT22;16424;50.956;5.320;2022-11-04T05:34:22;11.40;99.90
29453;DHT22;16424;50.956;5.320;2022-11-04T05:36:47;11.40;99.90
29453;DHT22;16424;50.956;5.320;2022-11-04T05:39:13;11.40;99.90
29453;DHT22;16424;50.956;5.320;2022-11-04T05:41:39;11.30;99.90
29453;DHT22;16424;50.956;5.320;2022-11-04T05:44:04;11.30;99.90
29453;DHT22;16424;50.956;5.320;2022-11-04T05:46:31;11.40;99.90
29453;DHT22;16424;50.956;5.320;2022-11-04T05:48:57;11.40;99.90
29453;DHT22;16424;50.956;5.320;2022-11-04T05:51:25;11.50;99.90
29453;DHT22;16424;50.956;5.320;2022-11-04T05:53:51;11.50;99.90
29453;DHT22;16424;50.956;5.320;2022-11-04T05:56:17;11.50;99.90
29453;DHT22;16424;50.956;5.320;2022-11-04T05:58:43;11.50;99.90
29453;DHT22;16424;50.956;5.320;2022-11-04T06:01:30;11.60;99.90
29453;DHT22;16424;50.956;5.320;2022-11-04T06:03:57;11.60;99.90
29453;DHT22;16424;50.956;5.320;2022-11-04T06:06:24;11.60;99.90
29453;DHT22;16424;50.956;5.320;2022-11-04T06:08:51;11.40;99.90
29453;DHT22;16424;50.956;5.320;2022-11-04T06:11:18;11.50;99.90
29453;DHT22;16424;50.956;5.320;2022-11-04T06:13:44;11.50;99.90
29453;DHT22;16424;50.956;5.320;2022-11-04T06:16:09;11.70;99.90
29453;DHT22;16424;50.956;5.320;2022-11-04T06:18:35;11.70;99.90
29453;DHT22;16424;50.956;5.320;2022-11-04T06:23:43;11.60;99.90
29453;DHT22;16424;50.956;5.320;2022-11-04T06:26:10;11.50;99.90
29453;DHT22;16424;50.956;5.320;2022-11-04T06:28:36;11.50;99.90
29453;DHT22;16424;50.956;5.320;2022-11-04T06:31:03;11.50;99.90
29453;DHT22;16424;50.956;5.320;2022-11-04T06:33:29;11.50;99.90
29453;DHT22;16424;50.956;5.320;2022-11-04T06:36:00;11.50;99.90
29453;DHT22;16424;50.956;5.320;2022-11-04T06:38:29;11.40;99.90
29453;DHT22;16424;50.956;5.320;2022-11-04T06:40:55;11.50;99.90
29453;DHT22;16424;50.956;5.320;2022-11-04T06:43:21;11.60;99.90
29453;DHT22;16424;50.956;5.320;2022-11-04T06:45:58;11.50;99.90
29453;DHT22;16424;50.956;5.320;2022-11-04T06:48:24;11.40;99.90
29453;DHT22;16424;50.956;5.320;2022-11-04T06:50:50;11.50;99.90
29453;DHT22;16424;50.956;5.320;2022-11-04T06:53:16;11.60;99.90
29453;DHT22;16424;50.956;5.320;2022-11-04T06:55:42;11.50;99.90
29453;DHT22;16424;50.956;5.320;2022-11-04T06:58:08;11.40;99.90
29453;DHT22;16424;50.956;5.320;2022-11-04T07:00:34;11.20;99.90
29453;DHT22;16424;50.956;5.320;2022-11-04T07:03:00;11.30;99.90
29453;DHT22;16424;50.956;5.320;2022-11-04T07:05:25;11.40;99.90
29453;DHT22;16424;50.956;5.320;2022-11-04T07:07:51;11.50;99.90
29453;DHT22;16424;50.956;5.320;2022-11-04T07:10:17;11.60;99.90
29453;DHT22;16424;50.956;5.320;2022-11-04T07:12:43;11.70;99.90
29453;DHT22;16424;50.956;5.320;2022-11-04T07:15:09;11.70;99.90
29453;DHT22;16424;50.956;5.320;2022-11-04T07:17:35;11.70;99.90
29453;DHT22;16424;50.956;5.320;2022-11-04T07:20:00;11.80;99.90
29453;DHT22;16424;50.956;5.320;2022-11-04T07:22:26;11.80;99.90
29453;DHT22;16424;50.956;5.320;2022-11-04T07:24:52;11.80;99.90
29453;DHT22;16424;50.956;5.320;2022-11-04T07:27:17;11.90;99.90
29453;DHT22;16424;50.956;5.320;2022-11-04T07:29:43;12.00;99.90
29453;DHT22;16424;50.956;5.320;2022-11-04T07:32:08;12.10;99.90
29453;DHT22;16424;50.956;5.320;2022-11-04T07:34:34;12.10;99.90
29453;DHT22;16424;50.956;5.320;2022-11-04T07:37:00;12.20;99.90
29453;DHT22;16424;50.956;5.320;2022-11-04T07:39:25;12.30;99.90
29453;DHT22;16424;50.956;5.320;2022-11-04T07:41:51;12.20;99.90
29453;DHT22;16424;50.956;5.320;2022-11-04T07:44:16;12.10;99.90
29453;DHT22;16424;50.956;5.320;2022-11-04T07:46:42;12.20;99.90
29453;DHT22;16424;50.956;5.320;2022-11-04T07:49:08;12.30;99.90
29453;DHT22;16424;50.956;5.320;2022-11-04T07:51:33;12.20;99.90
29453;DHT22;16424;50.956;5.320;2022-11-04T07:53:59;12.10;99.90
29453;DHT22;16424;50.956;5.320;2022-11-04T07:56:25;12.20;99.90
29453;DHT22;16424;50.956;5.320;2022-11-04T07:58:51;12.20;99.90
29453;DHT22;16424;50.956;5.320;2022-11-04T08:01:19;12.40;99.90
29453;DHT22;16424;50.956;5.320;2022-11-04T08:03:45;12.50;99.90
29453;DHT22;16424;50.956;5.320;2022-11-04T08:06:13;12.60;99.90
29453;DHT22;16424;50.956;5.320;2022-11-04T08:08:39;12.70;99.90
29453;DHT22;16424;50.956;5.320;2022-11-04T08:11:09;12.60;99.90
29453;DHT22;16424;50.956;5.320;2022-11-04T08:13:36;12.60;99.90
29453;DHT22;16424;50.956;5.320;2022-11-04T08:16:05;12.40;99.90
29453;DHT22;16424;50.956;5.320;2022-11-04T08:18:32;12.30;99.90
29453;DHT22;16424;50.956;5.320;2022-11-04T08:20:58;12.40;99.90
29453;DHT22;16424;50.956;5.320;2022-11-04T08:23:24;12.60;99.90
29453;DHT22;16424;50.956;5.320;2022-11-04T08:25:50;12.60;99.90
29453;DHT22;16424;50.956;5.320;2022-11-04T08:28:16;12.60;99.90
29453;DHT22;16424;50.956;5.320;2022-11-04T08:30:59;12.60;99.90
29453;DHT22;16424;50.956;5.320;2022-11-04T08:33:26;12.60;99.90
29453;DHT22;16424;50.956;5.320;2022-11-04T08:35:54;12.70;99.90
29453;DHT22;16424;50.956;5.320;2022-11-04T08:38:20;12.90;99.90
29453;DHT22;16424;50.956;5.320;2022-11-04T08:40:46;12.80;99.90
29453;DHT22;16424;50.956;5.320;2022-11-04T08:43:12;12.70;99.90
29453;DHT22;16424;50.956;5.320;2022-11-04T08:45:40;12.70;99.90
29453;DHT22;16424;50.956;5.320;2022-11-04T08:48:06;12.90;99.90
29453;DHT22;16424;50.956;5.320;2022-11-04T08:50:32;12.70;99.90
29453;DHT22;16424;50.956;5.320;2022-11-04T08:52:58;12.70;99.90
29453;DHT22;16424;50.956;5.320;2022-11-04T08:55:23;12.80;99.90
29453;DHT22;16424;50.956;5.320;2022-11-04T08:57:49;13.00;99.90
29453;DHT22;16424;50.956;5.320;2022-11-04T09:00:15;13.00;99.90
29453;DHT22;16424;50.956;5.320;2022-11-04T09:02:41;13.00;99.90
29453;DHT22;16424;50.956;5.320;2022-11-04T09:05:08;13.20;99.90
29453;DHT22;16424;50.956;5.320;2022-11-04T09:07:36;13.10;99.90
29453;DHT22;16424;50.956;5.320;2022-11-04T09:10:02;13.10;99.90
29453;DHT22;16424;50.956;5.320;2022-11-04T09:12:28;12.80;99.90
29453;DHT22;16424;50.956;5.320;2022-11-04T09:14:54;12.80;99.90
29453;DHT22;16424;50.956;5.320;2022-11-04T09:17:19;12.50;99.90
29453;DHT22;16424;50.956;5.320;2022-11-04T09:19:45;12.50;99.90
29453;DHT22;16424;50.956;5.320;2022-11-04T09:22:10;12.60;99.90
29453;DHT22;16424;50.956;5.320;2022-11-04T09:24:36;12.70;99.90
29453;DHT22;16424;50.956;5.320;2022-11-04T09:27:03;12.60;99.90
29453;DHT22;16424;50.956;5.320;2022-11-04T09:29:29;12.60;99.90
29453;DHT22;16424;50.956;5.320;2022-11-04T09:31:58;12.90;99.90
29453;DHT22;16424;50.956;5.320;2022-11-04T09:34:24;13.10;99.90
29453;DHT22;16424;50.956;5.320;2022-11-04T09:36:49;13.20;99.90
29453;DHT22;16424;50.956;5.320;2022-11-04T09:39:15;13.10;99.90
29453;DHT22;16424;50.956;5.320;2022-11-04T09:41:56;13.00;99.90
29453;DHT22;16424;50.956;5.320;2022-11-04T09:47:27;13.60;99.90
29453;DHT22;16424;50.956;5.320;2022-11-04T09:49:57;13.70;99.90
29453;DHT22;16424;50.956;5.320;2022-11-04T09:52:25;13.90;99.90
29453;DHT22;16424;50.956;5.320;2022-11-04T09:54:57;13.80;99.90
29453;DHT22;16424;50.956;5.320;2022-11-04T09:57:24;13.70;99.90
29453;DHT22;16424;50.956;5.320;2022-11-04T09:59:51;13.90;99.90
29453;DHT22;16424;50.956;5.320;2022-11-04T10:02:49;13.80;99.90
29453;DHT22;16424;50.956;5.320;2022-11-04T10:10:59;14.00;99.90
29453;DHT22;16424;50.956;5.320;2022-11-04T10:17:05;14.10;99.90
29453;DHT22;16424;50.956;5.320;2022-11-04T10:22:38;14.20;99.90
29453;DHT22;16424;50.956;5.320;2022-11-04T10:27:36;14.00;99.90
29453;DHT22;16424;50.956;5.320;2022-11-04T10:30:19;14.00;99.90
29453;DHT22;16424;50.956;5.320;2022-11-04T10:35:36;14.50;99.90
29453;DHT22;16424;50.956;5.320;2022-11-04T10:38:31;14.40;99.90
29453;DHT22;16424;50.956;5.320;2022-11-04T10:40:57;14.20;99.90
29453;DHT22;16424;50.956;5.320;2022-11-04T10:43:28;14.00;99.90
29453;DHT22;16424;50.956;5.320;2022-11-04T10:48:49;14.20;99.90
29453;DHT22;16424;50.956;5.320;2022-11-04T10:51:17;14.20;99.90
29453;DHT22;16424;50.956;5.320;2022-11-04T10:53:47;14.10;99.90
29453;DHT22;16424;50.956;5.320;2022-11-04T11:01:53;14.20;99.90
29453;DHT22;16424;50.956;5.320;2022-11-04T11:04:25;14.30;99.90
29453;DHT22;16424;50.956;5.320;2022-11-04T11:06:52;14.20;99.90
29453;DHT22;16424;50.956;5.320;2022-11-04T11:11:47;14.10;99.90
29453;DHT22;16424;50.956;5.320;2022-11-04T11:16:52;14.30;99.90
29453;DHT22;16424;50.956;5.320;2022-11-04T11:19:20;14.60;99.90
29453;DHT22;16424;50.956;5.320;2022-11-04T11:21:55;14.80;99.90
29453;DHT22;16424;50.956;5.320;2022-11-04T11:24:23;14.90;99.90
29453;DHT22;16424;50.956;5.320;2022-11-04T11:26:55;14.80;99.90
29453;DHT22;16424;50.956;5.320;2022-11-04T11:29:26;14.70;99.90
29453;DHT22;16424;50.956;5.320;2022-11-04T11:31:54;14.50;99.90
29453;DHT22;16424;50.956;5.320;2022-11-04T11:34:36;14.50;99.90
29453;DHT22;16424;50.956;5.320;2022-11-04T11:37:03;14.50;99.90
29453;DHT22;16424;50.956;5.320;2022-11-04T11:39:31;14.50;99.90
29453;DHT22;16424;50.956;5.320;2022-11-04T11:42:01;14.60;99.90
29453;DHT22;16424;50.956;5.320;2022-11-04T11:47:33;14.90;99.90
29453;DHT22;16424;50.956;5.320;2022-11-04T11:50:23;14.90;99.90
29453;DHT22;16424;50.956;5.320;2022-11-04T11:52:51;15.00;99.90
29453;DHT22;16424;50.956;5.320;2022-11-04T11:55:36;14.90;99.90
29453;DHT22;16424;50.956;5.320;2022-11-04T12:00:30;14.90;99.90
29453;DHT22;16424;50.956;5.320;2022-11-04T12:03:47;15.20;99.90
29453;DHT22;16424;50.956;5.320;2022-11-04T12:13:58;15.40;99.90
29453;DHT22;16424;50.956;5.320;2022-11-04T12:16:35;15.50;99.90
29453;DHT22;16424;50.956;5.320;2022-11-04T12:19:19;15.40;99.90
29453;DHT22;16424;50.956;5.320;2022-11-04T12:24:41;15.20;99.90
29453;DHT22;16424;50.956;5.320;2022-11-04T12:30:03;14.90;99.90
29453;DHT22;16424;50.956;5.320;2022-11-04T12:43:57;15.50;99.90
29453;DHT22;16424;50.956;5.320;2022-11-04T12:46:52;15.50;99.90
29453;DHT22;16424;50.956;5.320;2022-11-04T12:49:30;15.30;99.90
29453;DHT22;16424;50.956;5.320;2022-11-04T13:02:41;14.80;99.90
29453;DHT22;16424;50.956;5.320;2022-11-04T13:05:17;14.70;99.90
29453;DHT22;16424;50.956;5.320;2022-11-04T13:10:58;14.60;99.90
29453;DHT22;16424;50.956;5.320;2022-11-04T13:13:34;14.60;99.90
29453;DHT22;16424;50.956;5.320;2022-11-04T13:16:06;14.40;99.90
29453;DHT22;16424;50.956;5.320;2022-11-04T13:18:36;14.40;99.90
29453;DHT22;16424;50.956;5.320;2022-11-04T13:21:05;14.30;99.90
29453;DHT22;16424;50.956;5.320;2022-11-04T13:23:38;14.40;99.90
29453;DHT22;16424;50.956;5.320;2022-11-04T13:26:10;14.30;99.90
29453;DHT22;16424;50.956;5.320;2022-11-04T13:28:38;14.40;99.90
29453;DHT22;16424;50.956;5.320;2022-11-04T13:36:46;13.90;99.90
29453;DHT22;16424;50.956;5.320;2022-11-04T13:39:27;13.90;99.90
29453;DHT22;16424;50.956;5.320;2022-11-04T13:44:52;13.80;99.90
29453;DHT22;16424;50.956;5.320;2022-11-04T13:47:24;13.70;99.90
29453;DHT22;16424;50.956;5.320;2022-11-04T13:49:52;13.90;99.90
29453;DHT22;16424;50.956;5.320;2022-11-04T13:52:20;14.00;99.90
29453;DHT22;16424;50.956;5.320;2022-11-04T13:57:22;14.30;99.90
29453;DHT22;16424;50.956;5.320;2022-11-04T14:02:40;14.20;99.90
29453;DHT22;16424;50.956;5.320;2022-11-04T14:16:08;14.20;99.90
29453;DHT22;16424;50.956;5.320;2022-11-04T14:18:45;14.30;99.90
29453;DHT22;16424;50.956;5.320;2022-11-04T14:21:13;14.30;99.90
29453;DHT22;16424;50.956;5.320;2022-11-04T14:23:42;14.40;99.90
29453;DHT22;16424;50.956;5.320;2022-11-04T14:26:12;14.40;99.90
29453;DHT22;16424;50.956;5.320;2022-11-04T14:28:44;14.50;99.90
29453;DHT22;16424;50.956;5.320;2022-11-04T14:31:13;14.50;99.90
29453;DHT22;16424;50.956;5.320;2022-11-04T14:46:47;14.80;99.90
29453;DHT22;16424;50.956;5.320;2022-11-04T14:49:41;14.60;99.90
29453;DHT22;16424;50.956;5.320;2022-11-04T14:52:27;14.50;99.90
29453;DHT22;16424;50.956;5.320;2022-11-04T14:57:45;14.20;99.90
29453;DHT22;16424;50.956;5.320;2022-11-04T15:00:36;14.20;99.90
29453;DHT22;16424;50.956;5.320;2022-11-04T15:05:31;14.20;99.90
29453;DHT22;16424;50.956;5.320;2022-11-04T15:08:02;14.20;99.90
29453;DHT22;16424;50.956;5.320;2022-11-04T15:10:28;14.20;99.90
29453;DHT22;16424;50.956;5.320;2022-11-04T15:12:59;14.30;99.90
29453;DHT22;16424;50.956;5.320;2022-11-04T15:15:35;14.40;99.90
29453;DHT22;16424;50.956;5.320;2022-11-04T15:18:12;14.20;99.90
29453;DHT22;16424;50.956;5.320;2022-11-04T15:20:57;14.20;99.90
29453;DHT22;16424;50.956;5.320;2022-11-04T15:23:32;14.10;99.90
29453;DHT22;16424;50.956;5.320;2022-11-04T15:25:58;13.90;99.90
29453;DHT22;16424;50.956;5.320;2022-11-04T15:28:29;13.80;99.90
29453;DHT22;16424;50.956;5.320;2022-11-04T15:31:16;13.80;99.90
29453;DHT22;16424;50.956;5.320;2022-11-04T15:33:44;13.80;99.90
29453;DHT22;16424;50.956;5.320;2022-11-04T15:36:21;13.70;99.90
29453;DHT22;16424;50.956;5.320;2022-11-04T15:38:59;13.60;99.90
29453;DHT22;16424;50.956;5.320;2022-11-04T15:41:28;13.50;99.90
29453;DHT22;16424;50.956;5.320;2022-11-04T15:46:55;13.40;99.90
29453;DHT22;16424;50.956;5.320;2022-11-04T15:49:26;13.40;99.90
29453;DHT22;16424;50.956;5.320;2022-11-04T15:52:16;13.40;99.90
29453;DHT22;16424;50.956;5.320;2022-11-04T15:54:44;13.40;99.90
29453;DHT22;16424;50.956;5.320;2022-11-04T15:57:14;13.40;99.90
29453;DHT22;16424;50.956;5.320;2022-11-04T15:59:49;13.30;99.90
29453;DHT22;16424;50.956;5.320;2022-11-04T16:07:38;13.20;99.90
29453;DHT22;16424;50.956;5.320;2022-11-04T16:13:00;12.90;99.90
29453;DHT22;16424;50.956;5.320;2022-11-04T16:18:24;12.50;99.90
29453;DHT22;16424;50.956;5.320;2022-11-04T16:20:52;12.40;99.90
29453;DHT22;16424;50.956;5.320;2022-11-04T16:23:23;12.40;99.90
29453;DHT22;16424;50.956;5.320;2022-11-04T16:26:03;12.40;99.90
29453;DHT22;16424;50.956;5.320;2022-11-04T16:28:37;12.40;99.90
29453;DHT22;16424;50.956;5.320;2022-11-04T16:31:21;12.50;99.90
29453;DHT22;16424;50.956;5.320;2022-11-04T16:33:48;12.50;99.90
29453;DHT22;16424;50.956;5.320;2022-11-04T16:36:15;12.50;99.90
29453;DHT22;16424;50.956;5.320;2022-11-04T16:38:57;12.50;99.90
29453;DHT22;16424;50.956;5.320;2022-11-04T16:41:25;12.50;99.90
29453;DHT22;16424;50.956;5.320;2022-11-04T16:43:52;12.50;99.90
29453;DHT22;16424;50.956;5.320;2022-11-04T16:46:19;12.60;99.90
29453;DHT22;16424;50.956;5.320;2022-11-04T16:48:46;12.60;99.90
29453;DHT22;16424;50.956;5.320;2022-11-04T16:51:22;12.60;99.90
29453;DHT22;16424;50.956;5.320;2022-11-04T16:53:52;12.60;99.90
29453;DHT22;16424;50.956;5.320;2022-11-04T16:56:21;12.60;99.90
29453;DHT22;16424;50.956;5.320;2022-11-04T16:58:47;12.50;99.90
29453;DHT22;16424;50.956;5.320;2022-11-04T17:01:14;12.50;99.90
29453;DHT22;16424;50.956;5.320;2022-11-04T17:03:41;12.50;99.90
29453;DHT22;16424;50.956;5.320;2022-11-04T17:06:13;12.40;99.90
29453;DHT22;16424;50.956;5.320;2022-11-04T17:08:39;12.40;99.90
29453;DHT22;16424;50.956;5.320;2022-11-04T17:11:06;12.30;99.90
29453;DHT22;16424;50.956;5.320;2022-11-04T17:13:32;12.30;99.90
29453;DHT22;16424;50.956;5.320;2022-11-04T17:15:58;12.30;99.90
29453;DHT22;16424;50.956;5.320;2022-11-04T17:18:24;12.30;99.90
29453;DHT22;16424;50.956;5.320;2022-11-04T17:20:51;12.10;99.90
29453;DHT22;16424;50.956;5.320;2022-11-04T17:23:18;12.10;99.90
29453;DHT22;16424;50.956;5.320;2022-11-04T17:25:44;12.10;99.90
29453;DHT22;16424;50.956;5.320;2022-11-04T17:28:10;12.10;99.90
29453;DHT22;16424;50.956;5.320;2022-11-04T17:30:36;12.10;99.90
29453;DHT22;16424;50.956;5.320;2022-11-04T17:33:02;12.10;99.90
29453;DHT22;16424;50.956;5.320;2022-11-04T17:35:33;12.10;99.90
29453;DHT22;16424;50.956;5.320;2022-11-04T17:38:01;12.10;99.90
29453;DHT22;16424;50.956;5.320;2022-11-04T17:40:27;12.10;99.90
29453;DHT22;16424;50.956;5.320;2022-11-04T17:42:52;12.10;99.90
29453;DHT22;16424;50.956;5.320;2022-11-04T17:45:37;12.00;99.90
29453;DHT22;16424;50.956;5.320;2022-11-04T17:48:04;12.00;99.90
29453;DHT22;16424;50.956;5.320;2022-11-04T17:50:31;11.80;99.90
29453;DHT22;16424;50.956;5.320;2022-11-04T17:52:57;11.70;99.90
29453;DHT22;16424;50.956;5.320;2022-11-04T17:55:22;11.70;99.90
29453;DHT22;16424;50.956;5.320;2022-11-04T17:57:48;11.70;99.90
29453;DHT22;16424;50.956;5.320;2022-11-04T18:00:14;11.90;99.90
29453;DHT22;16424;50.956;5.320;2022-11-04T18:02:41;11.90;99.90
29453;DHT22;16424;50.956;5.320;2022-11-04T18:05:07;11.90;99.90
29453;DHT22;16424;50.956;5.320;2022-11-04T18:07:33;12.00;99.90
29453;DHT22;16424;50.956;5.320;2022-11-04T18:09:59;11.90;99.90
29453;DHT22;16424;50.956;5.320;2022-11-04T18:12:25;12.00;99.90
29453;DHT22;16424;50.956;5.320;2022-11-04T18:15:08;11.90;99.90
29453;DHT22;16424;50.956;5.320;2022-11-04T18:17:41;12.00;99.90
29453;DHT22;16424;50.956;5.320;2022-11-04T18:20:09;12.00;99.90
29453;DHT22;16424;50.956;5.320;2022-11-04T18:22:36;12.10;99.90
29453;DHT22;16424;50.956;5.320;2022-11-04T18:25:04;12.20;99.90
29453;DHT22;16424;50.956;5.320;2022-11-04T18:27:30;12.20;99.90
29453;DHT22;16424;50.956;5.320;2022-11-04T18:29:55;12.40;99.90
29453;DHT22;16424;50.956;5.320;2022-11-04T18:32:21;12.30;99.90
29453;DHT22;16424;50.956;5.320;2022-11-04T18:34:48;12.20;99.90
29453;DHT22;16424;50.956;5.320;2022-11-04T18:37:15;12.20;99.90
29453;DHT22;16424;50.956;5.320;2022-11-04T18:39:41;12.20;99.90
29453;DHT22;16424;50.956;5.320;2022-11-04T18:42:07;12.20;99.90
29453;DHT22;16424;50.956;5.320;2022-11-04T18:44:33;12.20;99.90